Time;durP1;ratioP1;P1;durP2;ratioP2;P2;SDS_P1;SDS_P2;PMS_P1;PMS_P2;Temp;Humidity;BMP_temperature;BMP_pressure;BME280_temperature;BME280_humidity;BME280_pressure;Samples;Min_cycle;Max_cycle;Signal;HPM_P1;HPM_P2
2022/08/20 00:00:34;;;;;;;12.07;10.05;;;;;;;19.17;100.00;101362.69;6212166;23;20327;-72
2022/08/20 00:03:05;;;;;;;13.45;10.38;;;;;;;19.13;100.00;101370.63;6187836;23;20004;-73
2022/08/20 00:05:36;;;;;;;14.20;10.48;;;;;;;19.12;100.00;101368.16;6214294;23;20012;-73
2022/08/20 00:08:03;;;;;;;13.80;10.20;;;;;;;19.15;100.00;101361.31;6213976;23;20016;-72
2022/08/20 00:10:29;;;;;;;12.50;10.43;;;;;;;19.12;100.00;101358.00;6214824;23;20031;-71
2022/08/20 00:12:55;;;;;;;15.32;9.90;;;;;;;19.16;100.00;101346.50;6212961;23;20450;-73
2022/08/20 00:15:27;;;;;;;14.48;10.52;;;;;;;19.22;100.00;101356.38;6213892;23;20008;-73
2022/08/20 00:17:54;;;;;;;13.18;10.30;;;;;;;19.18;100.00;101347.06;6187894;23;20402;-72
2022/08/20 00:20:23;;;;;;;13.13;10.93;;;;;;;19.19;100.00;101357.75;6188046;23;20047;-72
2022/08/20 00:22:49;;;;;;;14.82;9.98;;;;;;;19.17;100.00;101348.97;6187784;23;20063;-71
2022/08/20 00:25:16;;;;;;;13.20;10.60;;;;;;;19.15;100.00;101353.09;6214417;23;20337;-71
2022/08/20 00:27:41;;;;;;;12.88;10.73;;;;;;;19.13;100.00;101347.88;6214488;23;20015;-71
2022/08/20 00:30:09;;;;;;;14.98;10.25;;;;;;;19.16;100.00;101352.81;6187666;23;19997;-73
2022/08/20 00:32:47;;;;;;;12.57;9.85;;;;;;;19.13;100.00;101356.09;6187537;23;20079;-73
2022/08/20 00:35:14;;;;;;;17.30;9.80;;;;;;;19.13;100.00;101353.38;6214473;23;20012;-70
2022/08/20 00:37:40;;;;;;;13.95;10.35;;;;;;;19.16;100.00;101357.47;6214327;23;20005;-70
2022/08/20 00:40:06;;;;;;;13.05;10.18;;;;;;;19.16;100.00;101354.72;6214934;23;20007;-73
2022/08/20 00:42:41;;;;;;;13.25;9.90;;;;;;;19.16;100.00;101355.56;6216202;23;20546;-72
2022/08/20 00:45:06;;;;;;;11.32;9.63;;;;;;;19.15;100.00;101353.91;6189683;23;20015;-73
2022/08/20 00:47:32;;;;;;;15.00;10.10;;;;;;;19.15;100.00;101345.69;6189893;23;20009;-70
2022/08/20 00:49:57;;;;;;;14.80;10.65;;;;;;;19.12;100.00;101354.44;6216298;23;20009;-73
2022/08/20 00:52:23;;;;;;;11.93;9.85;;;;;;;19.12;100.00;101348.97;6189349;23;20381;-71
2022/08/20 00:54:56;;;;;;;13.70;9.77;;;;;;;19.09;100.00;101355.00;6216396;23;20011;-75
2022/08/20 00:57:28;;;;;;;12.05;9.90;;;;;;;19.06;100.00;101350.03;6189481;23;20012;-75
2022/08/20 00:59:56;;;;;;;13.65;9.90;;;;;;;19.08;100.00;101356.06;6216206;23;20011;-73
2022/08/20 01:02:24;;;;;;;14.07;9.80;;;;;;;19.07;100.00;101351.69;6186928;23;20008;-71
2022/08/20 01:04:52;;;;;;;13.13;10.05;;;;;;;19.06;100.00;101350.03;6215807;23;20009;-73
2022/08/20 01:07:19;;;;;;;14.05;9.57;;;;;;;19.05;100.00;101351.97;6189463;23;20016;-71
2022/08/20 01:09:45;;;;;;;11.30;9.82;;;;;;;19.03;100.00;101354.13;6216073;23;20004;-73
2022/08/20 01:12:13;;;;;;;14.23;9.57;;;;;;;18.97;100.00;101347.00;6188490;23;20004;-72
2022/08/20 01:14:44;;;;;;;14.60;10.80;;;;;;;19.00;100.00;101359.34;6189307;23;20016;-70
2022/08/20 01:17:14;;;;;;;14.57;11.32;;;;;;;18.96;100.00;101356.31;6216389;23;20031;-73
2022/08/20 01:20:05;;;;;;;15.30;11.50;;;;;;;18.94;100.00;101350.28;6216225;23;20055;-74
2022/08/20 01:26:14;;;;;;;16.30;11.52;;;;;;;18.94;100.00;101356.56;6215937;23;20022;-74
2022/08/20 01:28:45;;;;;;;19.23;12.32;;;;;;;18.87;100.00;101358.78;6152713;23;20427;-74
2022/08/20 01:31:17;;;;;;;17.17;12.15;;;;;;;18.84;100.00;101356.53;6208833;23;20005;-73
2022/08/20 01:33:43;;;;;;;16.98;12.43;;;;;;;18.81;100.00;101362.56;6215044;23;20035;-71
2022/08/20 01:36:09;;;;;;;16.70;13.05;;;;;;;18.80;100.00;101351.84;6215619;23;20427;-72
2022/08/20 01:38:37;;;;;;;16.75;12.82;;;;;;;18.77;100.00;101355.94;6189620;23;20430;-72
2022/08/20 01:41:18;;;;;;;16.70;12.95;;;;;;;18.76;100.00;101349.63;6215876;23;20004;-70
2022/08/20 01:43:45;;;;;;;18.40;13.63;;;;;;;18.73;100.00;101350.16;6214876;23;20008;-74
2022/08/20 01:46:12;;;;;;;23.85;13.95;;;;;;;18.72;100.00;101353.16;6216015;23;20015;-70
2022/08/20 01:48:39;;;;;;;18.48;12.45;;;;;;;18.71;100.00;101352.34;6216023;23;20398;-74
2022/08/20 01:51:12;;;;;;;19.67;13.10;;;;;;;18.75;100.00;101352.63;6215245;23;20012;-73
2022/08/20 01:53:43;;;;;;;22.13;13.30;;;;;;;18.72;100.00;101359.50;6215788;23;20100;-72
2022/08/20 01:56:13;;;;;;;22.20;13.25;;;;;;;18.68;100.00;101346.59;6214789;23;20031;-72
2022/08/20 01:58:43;;;;;;;17.00;12.77;;;;;;;18.69;100.00;101356.44;6211659;23;20346;-72
2022/08/20 02:01:19;;;;;;;18.83;13.60;;;;;;;18.73;100.00;101355.63;6185448;23;20447;-75
2022/08/20 02:03:44;;;;;;;19.70;13.10;;;;;;;18.68;100.00;101363.84;6188987;23;20008;-71
2022/08/20 02:06:09;;;;;;;25.17;14.25;;;;;;;18.62;100.00;101356.69;6214874;23;20299;-75
2022/08/20 02:08:35;;;;;;;22.67;14.35;;;;;;;18.63;100.00;101357.50;6189060;23;20059;-74
2022/08/20 02:11:01;;;;;;;25.90;14.73;;;;;;;18.60;100.00;101356.97;6215456;23;20303;-72
2022/08/20 02:13:26;;;;;;;19.48;14.15;;;;;;;18.62;100.00;101353.16;6215835;23;20005;-73
2022/08/20 02:15:51;;;;;;;24.05;14.98;;;;;;;18.55;100.00;101359.66;6214982;23;20414;-73
2022/08/20 02:18:17;;;;;;;22.35;15.18;;;;;;;18.55;100.00;101354.19;6216211;23;20096;-72
2022/08/20 02:20:43;;;;;;;27.77;15.45;;;;;;;18.58;100.00;101363.81;6215300;23;20087;-74
2022/08/20 02:23:11;;;;;;;24.38;14.57;;;;;;;18.58;100.00;101361.91;6214354;23;20009;-72
2022/08/20 02:25:39;;;;;;;22.75;14.70;;;;;;;18.57;100.00;101356.69;6189030;23;20004;-73
2022/08/20 02:28:08;;;;;;;25.55;14.55;;;;;;;18.58;100.00;101370.13;6188806;23;20005;-71
2022/08/20 02:30:38;;;;;;;20.45;14.23;;;;;;;18.56;100.00;101364.06;6215173;23;20008;-71
2022/08/20 02:33:08;;;;;;;25.95;14.85;;;;;;;18.58;100.00;101356.44;6188651;23;20487;-75
2022/08/20 02:35:34;;;;;;;24.45;14.30;;;;;;;18.53;100.00;101356.38;6215564;23;20322;-73
2022/08/20 02:37:59;;;;;;;22.70;14.55;;;;;;;18.54;100.00;101355.31;6215262;23;20008;-73
2022/08/20 02:40:26;;;;;;;19.85;13.32;;;;;;;18.52;100.00;101354.72;6188501;23;20011;-75
2022/08/20 02:42:53;;;;;;;23.67;13.77;;;;;;;18.48;100.00;101356.38;6214210;23;20059;-75
2022/08/20 02:45:21;;;;;;;22.88;14.02;;;;;;;18.44;100.00;101360.72;6214130;23;20008;-69
2022/08/20 02:47:46;;;;;;;23.35;13.93;;;;;;;18.44;100.00;101368.13;6214276;23;20004;-75
2022/08/20 02:50:14;;;;;;;28.10;14.07;;;;;;;18.42;100.00;101376.59;6214760;23;20001;-75
2022/08/20 02:52:40;;;;;;;22.13;13.35;;;;;;;18.41;100.00;101375.75;6215071;23;20039;-74
2022/08/20 02:55:07;;;;;;;28.23;15.38;;;;;;;18.39;100.00;101372.47;6215118;23;20009;-75
2022/08/20 02:57:33;;;;;;;22.33;15.57;;;;;;;18.33;100.00;101362.56;6215417;23;20008;-74
2022/08/20 02:59:59;;;;;;;26.73;15.55;;;;;;;18.38;100.00;101364.53;6214663;23;20005;-73
2022/08/20 03:02:24;;;;;;;26.92;16.98;;;;;;;18.32;100.00;101360.09;6185417;23;20005;-74
2022/08/20 03:04:50;;;;;;;31.15;17.75;;;;;;;18.29;100.00;101361.44;6213827;23;20009;-74
2022/08/20 03:07:16;;;;;;;29.70;18.90;;;;;;;18.31;100.00;101372.16;6188098;23;20063;-69
2022/08/20 03:09:41;;;;;;;32.03;19.08;;;;;;;18.27;100.00;101362.78;6215315;23;20000;-75
2022/08/20 03:12:07;;;;;;;29.55;19.63;;;;;;;18.24;100.00;101358.69;6188397;23;20004;-73
2022/08/20 03:14:34;;;;;;;33.38;20.88;;;;;;;18.23;100.00;101374.28;6214868;23;20031;-76
2022/08/20 03:16:59;;;;;;;30.33;20.23;;;;;;;18.22;100.00;101371.81;6214554;23;20005;-75
2022/08/20 03:19:25;;;;;;;31.40;20.00;;;;;;;18.25;100.00;101376.75;6214251;23;20299;-73
2022/08/20 03:21:51;;;;;;;29.55;20.45;;;;;;;18.17;100.00;101369.84;6214763;23;20031;-73
2022/08/20 03:24:17;;;;;;;26.63;20.10;;;;;;;18.19;100.00;101375.91;6215164;23;20000;-72
2022/08/20 03:26:42;;;;;;;32.30;20.38;;;;;;;18.18;100.00;101365.22;6188018;23;20017;-72
2022/08/20 03:29:08;;;;;;;32.13;19.67;;;;;;;18.16;100.00;101368.22;6213320;23;20019;-72
2022/08/20 03:31:33;;;;;;;33.55;20.17;;;;;;;18.11;100.00;101375.56;6188409;23;20418;-71
2022/08/20 03:33:58;;;;;;;30.77;19.45;;;;;;;18.07;100.00;101383.47;6214269;23;20430;-74
2022/08/20 03:36:26;;;;;;;31.48;18.38;;;;;;;18.05;100.00;101378.25;6215040;23;20028;-73
2022/08/20 03:38:51;;;;;;;27.80;18.35;;;;;;;18.02;100.00;101381.53;6214754;23;20007;-70
2022/08/20 03:41:17;;;;;;;24.25;17.50;;;;;;;18.01;100.00;101379.91;6214903;23;20005;-72
2022/08/20 03:43:43;;;;;;;28.15;18.00;;;;;;;17.98;100.00;101387.78;6214984;23;20378;-74
2022/08/20 03:46:08;;;;;;;28.40;17.27;;;;;;;17.95;100.00;101391.06;6214819;23;20366;-72
2022/08/20 03:48:34;;;;;;;26.65;17.02;;;;;;;17.94;100.00;101394.91;6214084;23;20000;-74
2022/08/20 03:50:59;;;;;;;27.50;16.75;;;;;;;17.92;100.00;101389.69;6214053;23;20023;-72
2022/08/20 03:53:28;;;;;;;23.67;15.38;;;;;;;17.92;100.00;101391.56;6214454;23;20009;-72
2022/08/20 03:55:54;;;;;;;28.33;16.50;;;;;;;17.84;100.00;101393.66;6187888;23;20009;-69
2022/08/20 03:58:20;;;;;;;27.60;15.38;;;;;;;17.81;100.00;101385.16;6214917;23;20000;-71
2022/08/20 04:00:49;;;;;;;32.90;16.15;;;;;;;17.80;100.00;101392.56;6211906;23;20000;-72
2022/08/20 04:03:15;;;;;;;30.63;16.52;;;;;;;17.77;100.00;101392.22;6214187;23;20313;-74
2022/08/20 04:05:42;;;;;;;31.67;16.13;;;;;;;17.76;100.00;101390.59;6214803;23;20015;-71
2022/08/20 04:08:13;;;;;;;26.25;16.38;;;;;;;17.73;100.00;101394.69;6214585;23;20015;-72
2022/08/20 04:10:39;;;;;;;29.05;17.13;;;;;;;17.73;100.00;101391.94;6214916;23;20008;-73
2022/08/20 04:13:06;;;;;;;31.15;16.52;;;;;;;17.70;100.00;101395.19;6213423;23;20334;-71
2022/08/20 04:15:32;;;;;;;27.73;16.42;;;;;;;17.71;100.00;101394.13;6215761;23;20004;-71
2022/08/20 04:17:57;;;;;;;26.42;15.77;;;;;;;17.72;100.00;101401.22;6215701;23;20418;-73
2022/08/20 04:20:24;;;;;;;30.05;17.00;;;;;;;17.66;100.00;101400.38;6216426;23;20008;-75
2022/08/20 04:22:54;;;;;;;29.45;16.83;;;;;;;17.66;100.00;101402.25;6190006;23;20007;-72
2022/08/20 04:25:20;;;;;;;33.45;17.98;;;;;;;17.62;100.00;101395.66;6216817;23;20008;-72
2022/08/20 04:27:46;;;;;;;31.27;18.15;;;;;;;17.65;100.00;101404.19;6216855;23;20005;-75
2022/08/20 04:30:15;;;;;;;31.38;20.05;;;;;;;17.59;100.00;101412.59;6216686;23;20304;-74
2022/08/20 04:32:41;;;;;;;30.63;20.45;;;;;;;17.58;100.00;101405.47;6216489;23;20032;-75
2022/08/20 04:35:10;;;;;;;33.05;21.70;;;;;;;17.57;100.00;101403.81;6215436;23;20414;-76
2022/08/20 04:37:37;;;;;;;31.30;22.48;;;;;;;17.60;100.00;101406.03;6216742;23;20414;-71
2022/08/20 04:42:59;;;;;;;37.33;23.80;;;;;;;17.61;100.00;101413.19;6216041;23;20016;-75
2022/08/20 04:45:25;;;;;;;35.50;23.17;;;;;;;17.62;100.00;101428.50;6216607;23;20009;-73
2022/08/20 04:47:51;;;;;;;39.53;24.80;;;;;;;17.61;100.00;101427.69;6216014;23;20059;-72
2022/08/20 04:50:18;;;;;;;33.97;23.50;;;;;;;17.61;100.00;101426.84;6216305;23;20084;-71
2022/08/20 04:52:44;;;;;;;33.90;24.30;;;;;;;17.59;100.00;101429.00;6216524;23;20004;-73
2022/08/20 04:55:10;;;;;;;34.92;24.50;;;;;;;17.62;100.00;101432.06;6215401;23;20027;-70
2022/08/20 04:57:37;;;;;;;37.75;24.83;;;;;;;17.47;100.00;101429.19;6189943;23;20005;-71
2022/08/20 05:00:06;;;;;;;37.83;25.20;;;;;;;17.41;100.00;101431.03;6188577;23;20012;-72
2022/08/20 05:02:31;;;;;;;37.13;25.92;;;;;;;17.44;100.00;101437.91;6212371;23;20001;-72
2022/08/20 05:04:56;;;;;;;39.33;26.10;;;;;;;17.44;100.00;101444.19;6215877;23;20015;-72
2022/08/20 05:07:22;;;;;;;36.72;24.27;;;;;;;17.43;100.00;101439.78;6215871;23;20445;-73
2022/08/20 05:09:47;;;;;;;38.47;24.67;;;;;;;17.36;100.00;101444.63;6216220;23;20023;-71
2022/08/20 05:12:14;;;;;;;41.17;25.95;;;;;;;17.35;100.00;101440.28;6215828;23;20008;-73
2022/08/20 05:14:40;;;;;;;36.97;25.13;;;;;;;17.35;100.00;101440.28;6216350;23;20001;-71
2022/08/20 05:17:06;;;;;;;36.72;25.05;;;;;;;17.39;100.00;101446.84;6214792;23;20311;-74
2022/08/20 05:19:35;;;;;;;38.22;23.80;;;;;;;17.39;100.00;101441.38;6189552;23;20151;-72
2022/08/20 05:22:00;;;;;;;38.25;23.40;;;;;;;17.39;100.00;101444.13;6188917;23;20027;-72
2022/08/20 05:24:26;;;;;;;38.22;22.35;;;;;;;17.34;100.00;101450.38;6189659;23;20414;-73
2022/08/20 05:26:54;;;;;;;32.47;22.13;;;;;;;17.38;100.00;101450.69;6189355;23;20330;-72
2022/08/20 05:29:19;;;;;;;34.90;22.75;;;;;;;17.36;100.00;101450.09;6189229;23;20096;-75
2022/08/20 05:31:45;;;;;;;38.00;23.15;;;;;;;17.40;100.00;101450.44;6189536;23;20057;-74
2022/08/20 05:34:11;;;;;;;37.10;23.55;;;;;;;17.39;100.00;101460.53;6215354;23;20005;-73
2022/08/20 05:36:45;;;;;;;38.22;23.33;;;;;;;17.43;100.00;101458.94;6216117;23;20004;-74
2022/08/20 05:39:12;;;;;;;38.30;23.98;;;;;;;17.44;100.00;101462.53;6188506;23;20005;-73
2022/08/20 05:41:38;;;;;;;37.63;23.95;;;;;;;17.43;100.00;101461.69;6188928;23;20091;-73
2022/08/20 05:44:04;;;;;;;39.63;23.73;;;;;;;17.40;100.00;101462.19;6215826;23;20008;-73
2022/08/20 05:46:30;;;;;;;45.03;24.13;;;;;;;17.40;100.00;101467.66;6216079;23;20001;-74
2022/08/20 05:48:56;;;;;;;40.17;24.30;;;;;;;17.43;100.00;101463.59;6189425;23;20013;-72
2022/08/20 05:51:21;;;;;;;44.17;26.20;;;;;;;17.43;100.00;101469.06;6215239;23;20016;-71
2022/08/20 05:53:47;;;;;;;44.20;27.17;;;;;;;17.44;100.00;101471.56;6216032;23;20084;-73
2022/08/20 05:56:12;;;;;;;44.30;27.73;;;;;;;17.43;100.00;101469.88;6215788;23;20036;-71
2022/08/20 05:58:37;;;;;;;42.75;26.67;;;;;;;17.44;100.00;101471.56;6189197;23;20012;-74
2022/08/20 06:01:03;;;;;;;40.60;26.92;;;;;;;17.42;100.00;101471.00;6185687;23;20009;-73
2022/08/20 06:06:13;;;;;;;43.45;27.70;;;;;;;17.47;100.00;101471.03;6214458;23;20054;-70
2022/08/20 06:08:39;;;;;;;45.65;27.52;;;;;;;17.50;100.00;101480.66;6215932;23;20017;-71
2022/08/20 06:11:04;;;;;;;46.55;28.20;;;;;;;17.51;100.00;101474.94;6215574;23;20011;-73
2022/08/20 06:13:29;;;;;;;48.85;28.33;;;;;;;17.51;100.00;101480.41;6188681;23;20001;-75
2022/08/20 06:15:56;;;;;;;44.72;27.45;;;;;;;17.50;100.00;101475.19;6215365;23;20054;-70
2022/08/20 06:18:21;;;;;;;51.25;28.88;;;;;;;17.50;100.00;101481.47;6188777;23;20441;-73
2022/08/20 06:20:47;;;;;;;42.50;27.65;;;;;;;17.52;100.00;101475.75;6214922;23;20015;-71
2022/08/20 06:23:12;;;;;;;44.15;27.52;;;;;;;17.53;100.00;101478.22;6188086;23;20008;-71
2022/08/20 06:25:38;;;;;;;43.65;27.73;;;;;;;17.52;100.00;101473.81;6188901;23;20012;-73
2022/08/20 06:28:04;;;;;;;50.28;29.52;;;;;;;17.50;100.00;101473.25;6188677;23;20429;-74
2022/08/20 06:30:30;;;;;;;50.08;28.83;;;;;;;17.53;100.00;101474.66;6188933;23;20088;-70
2022/08/20 06:32:56;;;;;;;52.95;28.95;;;;;;;17.54;100.00;101477.16;6188795;23;20005;-71
2022/08/20 06:35:22;;;;;;;47.63;28.83;;;;;;;17.59;100.00;101472.78;6214856;23;20318;-72
2022/08/20 06:37:47;;;;;;;45.00;29.58;;;;;;;17.59;100.00;101468.16;6214568;23;20004;-70
2022/08/20 06:40:19;;;;;;;49.58;28.80;;;;;;;17.62;100.00;101472.28;6188506;23;20430;-75
2022/08/20 06:42:45;;;;;;;48.72;28.05;;;;;;;17.63;100.00;101476.69;6187509;23;20005;-70
2022/08/20 06:45:13;;;;;;;44.88;29.65;;;;;;;17.62;100.00;101477.75;6214587;23;20009;-70
2022/08/20 06:47:43;;;;;;;55.17;30.23;;;;;;;17.67;100.00;101486.03;6187972;23;20004;-69
2022/08/20 06:50:17;;;;;;;47.05;29.58;;;;;;;17.68;100.00;101482.22;6215172;23;20038;-71
2022/08/20 06:52:42;;;;;;;53.42;30.45;;;;;;;17.69;100.00;101481.13;6214752;23;20009;-72
2022/08/20 06:55:09;;;;;;;47.92;29.48;;;;;;;17.70;100.00;101482.78;6214906;23;20008;-70
2022/08/20 06:57:36;;;;;;;53.65;31.02;;;;;;;17.69;100.00;101481.13;6215348;23;20001;-71
2022/08/20 07:00:18;;;;;;;46.90;30.67;;;;;;;17.66;100.00;101478.91;6188707;23;20005;-70
2022/08/20 07:02:45;;;;;;;47.53;31.77;;;;;;;17.69;100.00;101489.34;6212504;23;20079;-71
2022/08/20 07:05:11;;;;;;;45.30;31.20;;;;;;;17.71;100.00;101487.19;6214678;23;20004;-69
2022/08/20 07:07:37;;;;;;;50.53;31.45;;;;;;;17.76;100.00;101489.97;6214045;23;20019;-71
2022/08/20 07:10:10;;;;;;;52.08;32.78;;;;;;;17.80;100.00;101490.25;6215285;23;20001;-69
2022/08/20 07:12:36;;;;;;;46.63;31.63;;;;;;;17.82;100.00;101488.94;6215249;23;20008;-69
2022/08/20 07:15:07;;;;;;;50.05;33.08;;;;;;;17.87;100.00;101497.22;6214876;23;20486;-69
2022/08/20 07:17:33;;;;;;;50.90;33.47;;;;;;;17.87;100.00;101502.69;6214770;23;20008;-69
2022/08/20 07:20:05;;;;;;;43.50;32.63;;;;;;;17.87;100.00;101497.22;6215226;23;20009;-68
2022/08/20 07:22:30;;;;;;;48.78;32.75;;;;;;;17.92;100.00;101495.63;6214624;23;20016;-68
2022/08/20 07:24:56;;;;;;;44.60;30.98;;;;;;;17.90;100.00;101501.34;6214673;23;20004;-71
2022/08/20 07:27:22;;;;;;;44.30;31.05;;;;;;;17.92;100.00;101504.69;6214822;23;20418;-70
2022/08/20 07:32:38;;;;;;;49.67;32.97;;;;;;;17.93;100.00;101514.53;6214324;23;20067;-70
2022/08/20 07:35:11;;;;;;;50.33;33.60;;;;;;;17.92;100.00;101514.78;6215081;23;20005;-70
2022/08/20 07:37:39;;;;;;;47.65;33.38;;;;;;;17.95;100.00;101517.00;6215009;23;20083;-70
2022/08/20 07:40:06;;;;;;;47.00;33.20;;;;;;;17.98;100.00;101513.75;6214595;23;20329;-70
2022/08/20 07:42:31;;;;;;;55.70;33.75;;;;;;;18.01;100.00;101519.56;6215057;23;20032;-69
2022/08/20 07:44:57;;;;;;;46.63;31.67;;;;;;;18.06;100.00;101522.31;6214647;23;20012;-68
2022/08/20 07:47:22;;;;;;;48.85;31.17;;;;;;;18.11;100.00;101518.81;6214632;23;20427;-70
2022/08/20 07:49:47;;;;;;;45.45;31.48;;;;;;;18.11;100.00;101532.50;6214487;23;20481;-69
2022/08/20 07:52:13;;;;;;;50.85;31.90;;;;;;;18.14;100.00;101525.69;6213705;23;20076;-68
2022/08/20 07:54:38;;;;;;;44.38;31.10;;;;;;;18.17;100.00;101531.47;6214373;23;20009;-68
2022/08/20 07:57:04;;;;;;;44.08;28.27;;;;;;;18.24;100.00;101540.31;6214886;23;20005;-71
2022/08/20 07:59:30;;;;;;;40.65;29.50;;;;;;;18.28;100.00;101535.13;6214605;23;20008;-71
2022/08/20 08:01:55;;;;;;;42.42;29.52;;;;;;;18.36;100.00;101542.06;6212075;23;20005;-68
2022/08/20 08:04:23;;;;;;;41.75;29.40;;;;;;;18.45;100.00;101551.47;6214345;23;20011;-68
2022/08/20 08:06:49;;;;;;;38.28;27.80;;;;;;;18.55;100.00;101545.22;6213698;23;20005;-67
2022/08/20 08:09:14;;;;;;;39.85;24.55;;;;;;;18.55;100.00;101548.78;6187473;23;20028;-70
2022/08/20 08:11:45;;;;;;;39.00;25.67;;;;;;;18.54;100.00;101549.03;6214759;23;20357;-70
2022/08/20 08:14:12;;;;;;;36.83;24.67;;;;;;;18.63;100.00;101552.13;6187914;23;20374;-71
2022/08/20 08:16:38;;;;;;;37.40;24.75;;;;;;;18.72;100.00;101545.06;6214317;23;20008;-68
2022/08/20 08:19:06;;;;;;;34.42;23.38;;;;;;;18.86;100.00;101549.06;6213101;23;20008;-69
2022/08/20 08:21:31;;;;;;;29.15;18.77;;;;;;;18.88;100.00;101554.28;6214354;23;20016;-71
2022/08/20 08:23:57;;;;;;;22.52;16.55;;;;;;;18.83;100.00;101552.28;6214497;23;20004;-69
2022/08/20 08:26:22;;;;;;;27.48;15.95;;;;;;;18.84;100.00;101553.97;6214484;23;20031;-70
2022/08/20 08:28:48;;;;;;;22.10;14.50;;;;;;;18.83;100.00;101563.25;6213778;23;20087;-69
2022/08/20 08:31:14;;;;;;;23.98;13.25;;;;;;;18.88;100.00;101557.03;6214145;23;20001;-70
2022/08/20 08:33:40;;;;;;;21.15;13.30;;;;;;;18.96;100.00;101559.25;6214361;23;20501;-72
2022/08/20 08:36:11;;;;;;;25.55;15.93;;;;;;;19.16;100.00;101555.84;6214692;23;20080;-68
2022/08/20 08:38:38;;;;;;;;;;;;;;;19.23;100.00;101561.88;6215241;23;20009;-68
2022/08/20 08:41:17;;;;;;;25.42;16.23;;;;;;;19.32;100.00;101559.47;6214701;23;19911;-67
2022/08/20 08:43:45;;;;;;;21.65;14.95;;;;;;;19.35;100.00;101563.59;6214154;23;20059;-70
2022/08/20 08:46:12;;;;;;;21.02;14.43;;;;;;;19.27;100.00;101567.69;6214439;23;20011;-69
2022/08/20 08:48:44;;;;;;;21.85;13.40;;;;;;;19.18;100.00;101570.09;6214225;23;20005;-69
2022/08/20 08:51:12;;;;;;;22.23;12.82;;;;;;;19.17;100.00;101568.44;6214494;23;20005;-67
2022/08/20 08:53:45;;;;;;;19.98;13.80;;;;;;;19.24;100.00;101571.78;6214656;23;20446;-66
2022/08/20 08:56:13;;;;;;;21.13;11.98;;;;;;;19.31;100.00;101574.31;6214347;23;20456;-67
2022/08/20 08:58:39;;;;;;;20.77;9.90;;;;;;;19.37;100.00;101572.38;6213654;23;20047;-66
2022/08/20 09:01:11;;;;;;;21.33;9.85;;;;;;;19.36;100.00;101570.75;6185581;23;20001;-67
2022/08/20 09:03:38;;;;;;;20.75;8.20;;;;;;;19.32;97.86;101575.94;6215330;23;20009;-68
2022/08/20 09:06:06;;;;;;;16.80;8.40;;;;;;;19.42;100.00;101576.00;6215451;23;20320;-68
2022/08/20 09:08:41;;;;;;;18.05;8.70;;;;;;;19.52;100.00;101575.22;6216133;23;20042;-67
2022/08/20 09:11:09;;;;;;;13.20;7.50;;;;;;;19.58;94.33;101581.53;6214660;23;20042;-67
2022/08/20 09:13:34;;;;;;;16.63;7.90;;;;;;;19.60;92.69;101580.19;6189432;23;20333;-67
2022/08/20 09:16:00;;;;;;;17.27;7.10;;;;;;;19.63;89.41;101576.91;6215621;23;20008;-67
2022/08/20 09:18:25;;;;;;;15.63;6.70;;;;;;;19.73;94.16;101576.13;6215659;23;20012;-69
2022/08/20 09:20:51;;;;;;;18.33;7.47;;;;;;;19.86;100.00;101574.00;6188215;23;20004;-69
2022/08/20 09:23:16;;;;;;;20.77;9.73;;;;;;;19.98;97.92;101578.16;6215844;23;20106;-69
2022/08/20 09:25:42;;;;;;;13.77;6.80;;;;;;;20.03;90.52;101582.00;6188478;23;20019;-69
2022/08/20 09:28:07;;;;;;;12.90;5.60;;;;;;;19.96;87.28;101580.34;6216313;23;20011;-69
2022/08/20 09:30:32;;;;;;;13.98;7.78;;;;;;;19.92;81.09;101567.44;6215611;23;20008;-69
2022/08/20 09:32:59;;;;;;;15.68;8.40;;;;;;;20.00;95.70;101575.97;6215064;23;20051;-68
2022/08/20 09:35:24;;;;;;;15.63;9.40;;;;;;;20.05;95.21;101577.91;6187814;23;20058;-69
2022/08/20 09:37:51;;;;;;;14.32;7.70;;;;;;;19.98;89.34;101572.66;6215408;23;20079;-69
2022/08/20 09:40:17;;;;;;;14.80;7.45;;;;;;;20.08;97.29;101571.88;6214520;23;20325;-69
2022/08/20 09:42:42;;;;;;;15.27;7.10;;;;;;;20.16;91.07;101573.25;6188446;23;20011;-69
2022/08/20 09:45:10;;;;;;;14.60;8.38;;;;;;;20.22;94.67;101577.66;6188974;23;20032;-70
2022/08/20 09:47:36;;;;;;;16.00;8.82;;;;;;;20.22;89.56;101569.41;6188608;23;20059;-69
2022/08/20 09:50:02;;;;;;;14.60;8.80;;;;;;;20.22;90.11;101555.69;6215623;23;20326;-69
2022/08/20 09:52:32;;;;;;;13.77;7.00;;;;;;;20.32;92.28;101566.69;6215725;23;20004;-69
2022/08/20 09:55:00;;;;;;;17.60;7.18;;;;;;;20.41;89.89;101571.63;6214218;23;20008;-69
2022/08/20 09:57:27;;;;;;;16.38;6.47;;;;;;;20.37;77.97;101568.59;6214733;23;20480;-69
2022/08/20 09:59:57;;;;;;;15.77;7.32;;;;;;;20.33;78.42;101571.06;6188790;23;20078;-68
2022/08/20 10:02:24;;;;;;;16.97;6.17;;;;;;;20.45;82.85;101570.00;6211121;23;20001;-71
2022/08/20 10:04:50;;;;;;;10.88;4.30;;;;;;;20.42;69.19;101573.28;6188719;23;20013;-69
2022/08/20 10:07:15;;;;;;;13.90;3.90;;;;;;;20.48;71.79;101574.94;6188419;23;20342;-69
2022/08/20 10:09:40;;;;;;;10.23;3.70;;;;;;;20.44;67.13;101574.66;6215830;23;20509;-70
2022/08/20 10:12:06;;;;;;;13.68;5.38;;;;;;;20.42;69.27;101570.53;6215550;23;20005;-69
2022/08/20 10:14:31;;;;;;;12.20;4.60;;;;;;;20.56;71.84;101570.81;6215009;23;20330;-68
2022/08/20 10:16:58;;;;;;;11.18;4.32;;;;;;;20.63;73.64;101572.19;6214997;23;20449;-71
2022/08/20 10:19:24;;;;;;;10.90;5.13;;;;;;;20.78;73.36;101576.06;6215004;23;20008;-70
2022/08/20 10:21:51;;;;;;;18.20;5.38;;;;;;;20.76;70.33;101576.34;6185652;23;20016;-69
2022/08/20 10:24:17;;;;;;;15.82;4.88;;;;;;;20.71;69.77;101573.59;6187788;23;20330;-70
2022/08/20 10:26:43;;;;;;;10.98;4.65;;;;;;;20.75;69.20;101571.13;6214649;23;20005;-70
2022/08/20 10:29:08;;;;;;;15.60;4.80;;;;;;;20.84;69.24;101572.22;6215507;23;20008;-70
2022/08/20 10:31:33;;;;;;;14.35;5.10;;;;;;;20.98;71.38;101567.78;6215332;23;20007;-70
2022/08/20 10:33:59;;;;;;;13.38;4.93;;;;;;;20.96;68.87;101571.94;6214288;23;20016;-70
2022/08/20 10:36:24;;;;;;;11.48;4.72;;;;;;;20.92;69.09;101565.31;6214522;23;20004;-69
2022/08/20 10:38:49;;;;;;;10.25;4.93;;;;;;;21.02;69.72;101568.88;6188683;23;20330;-68
2022/08/20 10:41:15;;;;;;;13.70;5.72;;;;;;;21.10;69.55;101572.97;6215466;23;20051;-69
2022/08/20 10:43:40;;;;;;;13.05;5.63;;;;;;;21.22;70.26;101572.69;6187437;23;20005;-69
2022/08/20 10:46:05;;;;;;;15.70;5.20;;;;;;;21.35;68.04;101569.34;6187265;23;20008;-71
2022/08/20 10:48:31;;;;;;;13.95;4.20;;;;;;;21.49;65.56;101568.75;6215154;23;20059;-74
2022/08/20 10:50:57;;;;;;;15.52;4.38;;;;;;;21.56;67.39;101583.91;6213196;23;20005;-70
2022/08/20 10:53:22;;;;;;;12.93;4.32;;;;;;;21.61;67.94;101577.53;6214504;23;20000;-69
2022/08/20 10:55:47;;;;;;;11.55;3.90;;;;;;;21.65;67.28;101575.88;6213978;23;20311;-71
2022/08/20 10:58:13;;;;;;;12.70;3.47;;;;;;;21.60;63.50;101575.88;6214769;23;20009;-70
2022/08/20 11:00:39;;;;;;;11.75;3.58;;;;;;;21.56;63.58;101580.31;6211067;23;20374;-72
2022/08/20 11:03:05;;;;;;;9.63;3.60;;;;;;;21.51;63.19;101578.38;6215160;23;20005;-72
2022/08/20 11:05:31;;;;;;;13.82;3.63;;;;;;;21.48;63.02;101586.38;6214585;23;20059;-69
2022/08/20 11:07:58;;;;;;;15.98;3.78;;;;;;;21.38;64.21;101582.53;6187637;23;20450;-72
2022/08/20 11:10:25;;;;;;;13.63;3.53;;;;;;;21.49;64.05;101583.34;6214610;23;20133;-72
2022/08/20 11:12:50;;;;;;;13.77;3.10;;;;;;;21.68;64.57;101580.81;6214355;23;20070;-71
2022/08/20 11:15:16;;;;;;;8.52;3.13;;;;;;;21.77;63.36;101572.78;6213858;23;20083;-72